sensor_id;sensor_type;location;lat;lon;timestamp;P1;durP1;ratioP1;P2;durP2;ratioP2
52668;SDS011;59898;52.786;6.892;2023-04-25T00:02:35;18.98;;;7.15;;
52668;SDS011;59898;52.786;6.892;2023-04-25T00:05:56;17.88;;;6.03;;
52668;SDS011;59898;52.786;6.892;2023-04-25T00:09:16;36.97;;;7.90;;
52668;SDS011;59898;52.786;6.892;2023-04-25T00:12:37;19.35;;;6.18;;
52668;SDS011;59898;52.786;6.892;2023-04-25T00:15:58;18.27;;;5.65;;
52668;SDS011;59898;52.786;6.892;2023-04-25T00:19:20;20.42;;;7.43;;
52668;SDS011;59898;52.786;6.892;2023-04-25T00:22:40;15.73;;;4.95;;
52668;SDS011;59898;52.786;6.892;2023-04-25T00:26:01;25.23;;;6.32;;
52668;SDS011;59898;52.786;6.892;2023-04-25T00:29:22;21.52;;;6.63;;
52668;SDS011;59898;52.786;6.892;2023-04-25T00:32:42;14.00;;;6.30;;
52668;SDS011;59898;52.786;6.892;2023-04-25T00:36:03;19.48;;;5.72;;
52668;SDS011;59898;52.786;6.892;2023-04-25T00:39:24;15.32;;;5.30;;
52668;SDS011;59898;52.786;6.892;2023-04-25T00:42:45;13.35;;;5.70;;
52668;SDS011;59898;52.786;6.892;2023-04-25T00:46:07;13.57;;;4.65;;
52668;SDS011;59898;52.786;6.892;2023-04-25T00:49:27;14.68;;;6.53;;
52668;SDS011;59898;52.786;6.892;2023-04-25T00:52:48;13.30;;;5.78;;
52668;SDS011;59898;52.786;6.892;2023-04-25T00:56:08;18.65;;;6.28;;
52668;SDS011;59898;52.786;6.892;2023-04-25T00:59:29;20.27;;;5.10;;
52668;SDS011;59898;52.786;6.892;2023-04-25T01:02:50;16.05;;;6.00;;
52668;SDS011;59898;52.786;6.892;2023-04-25T01:06:12;16.38;;;5.05;;
52668;SDS011;59898;52.786;6.892;2023-04-25T01:09:32;18.60;;;6.10;;
52668;SDS011;59898;52.786;6.892;2023-04-25T01:12:53;23.10;;;6.05;;
52668;SDS011;59898;52.786;6.892;2023-04-25T01:16:14;18.38;;;5.13;;
52668;SDS011;59898;52.786;6.892;2023-04-25T01:19:35;17.02;;;5.65;;
52668;SDS011;59898;52.786;6.892;2023-04-25T01:22:56;14.63;;;4.53;;
52668;SDS011;59898;52.786;6.892;2023-04-25T01:26:16;14.18;;;5.45;;
52668;SDS011;59898;52.786;6.892;2023-04-25T01:29:37;13.10;;;4.78;;
52668;SDS011;59898;52.786;6.892;2023-04-25T01:32:58;13.77;;;4.80;;
52668;SDS011;59898;52.786;6.892;2023-04-25T01:36:20;15.30;;;4.05;;
52668;SDS011;59898;52.786;6.892;2023-04-25T01:39:41;10.27;;;4.82;;
52668;SDS011;59898;52.786;6.892;2023-04-25T01:43:02;13.85;;;5.72;;
52668;SDS011;59898;52.786;6.892;2023-04-25T01:46:23;12.88;;;4.93;;
52668;SDS011;59898;52.786;6.892;2023-04-25T01:49:44;15.30;;;5.28;;
52668;SDS011;59898;52.786;6.892;2023-04-25T01:53:05;19.15;;;6.50;;
52668;SDS011;59898;52.786;6.892;2023-04-25T01:56:29;14.73;;;5.53;;
52668;SDS011;59898;52.786;6.892;2023-04-25T01:59:51;22.45;;;6.22;;
52668;SDS011;59898;52.786;6.892;2023-04-25T02:03:12;16.23;;;6.10;;
52668;SDS011;59898;52.786;6.892;2023-04-25T02:06:32;18.30;;;5.47;;
52668;SDS011;59898;52.786;6.892;2023-04-25T02:09:53;13.75;;;5.30;;
52668;SDS011;59898;52.786;6.892;2023-04-25T02:13:13;9.90;;;5.22;;
52668;SDS011;59898;52.786;6.892;2023-04-25T02:16:34;18.17;;;5.05;;
52668;SDS011;59898;52.786;6.892;2023-04-25T02:19:55;17.08;;;4.78;;
52668;SDS011;59898;52.786;6.892;2023-04-25T02:23:16;15.70;;;5.45;;
52668;SDS011;59898;52.786;6.892;2023-04-25T02:26:38;10.70;;;4.60;;
52668;SDS011;59898;52.786;6.892;2023-04-25T02:29:59;18.20;;;4.70;;
52668;SDS011;59898;52.786;6.892;2023-04-25T02:33:20;15.40;;;5.90;;
52668;SDS011;59898;52.786;6.892;2023-04-25T02:36:41;17.08;;;5.72;;
52668;SDS011;59898;52.786;6.892;2023-04-25T02:40:01;19.90;;;5.60;;
52668;SDS011;59898;52.786;6.892;2023-04-25T02:43:25;20.25;;;5.88;;
52668;SDS011;59898;52.786;6.892;2023-04-25T02:46:46;13.27;;;4.70;;
52668;SDS011;59898;52.786;6.892;2023-04-25T02:50:07;16.48;;;5.15;;
52668;SDS011;59898;52.786;6.892;2023-04-25T02:53:27;17.45;;;5.32;;
52668;SDS011;59898;52.786;6.892;2023-04-25T02:56:48;15.32;;;5.32;;
52668;SDS011;59898;52.786;6.892;2023-04-25T03:00:08;21.00;;;6.28;;
52668;SDS011;59898;52.786;6.892;2023-04-25T03:03:31;13.52;;;5.50;;
52668;SDS011;59898;52.786;6.892;2023-04-25T03:06:52;18.63;;;5.30;;
52668;SDS011;59898;52.786;6.892;2023-04-25T03:10:13;16.65;;;6.78;;
52668;SDS011;59898;52.786;6.892;2023-04-25T03:13:33;14.80;;;5.28;;
52668;SDS011;59898;52.786;6.892;2023-04-25T03:16:54;19.95;;;5.35;;
52668;SDS011;59898;52.786;6.892;2023-04-25T03:20:15;15.70;;;5.40;;
52668;SDS011;59898;52.786;6.892;2023-04-25T03:23:35;14.55;;;5.47;;
52668;SDS011;59898;52.786;6.892;2023-04-25T03:26:56;14.32;;;5.22;;
52668;SDS011;59898;52.786;6.892;2023-04-25T03:30:16;19.55;;;5.18;;
52668;SDS011;59898;52.786;6.892;2023-04-25T03:33:37;18.02;;;5.70;;
52668;SDS011;59898;52.786;6.892;2023-04-25T03:36:58;16.92;;;4.80;;
52668;SDS011;59898;52.786;6.892;2023-04-25T03:40:18;10.20;;;4.35;;
52668;SDS011;59898;52.786;6.892;2023-04-25T03:43:39;12.27;;;4.55;;
52668;SDS011;59898;52.786;6.892;2023-04-25T03:47:00;21.27;;;5.43;;
52668;SDS011;59898;52.786;6.892;2023-04-25T03:50:20;12.20;;;4.45;;
52668;SDS011;59898;52.786;6.892;2023-04-25T03:53:41;11.95;;;4.20;;
52668;SDS011;59898;52.786;6.892;2023-04-25T03:57:01;14.85;;;4.95;;
52668;SDS011;59898;52.786;6.892;2023-04-25T04:00:22;24.98;;;4.22;;
52668;SDS011;59898;52.786;6.892;2023-04-25T04:03:42;21.27;;;5.68;;
52668;SDS011;59898;52.786;6.892;2023-04-25T04:07:03;11.80;;;4.90;;
52668;SDS011;59898;52.786;6.892;2023-04-25T04:10:24;12.57;;;4.22;;
52668;SDS011;59898;52.786;6.892;2023-04-25T04:13:46;10.88;;;3.80;;
52668;SDS011;59898;52.786;6.892;2023-04-25T04:17:06;20.55;;;4.50;;
52668;SDS011;59898;52.786;6.892;2023-04-25T04:20:27;13.00;;;3.70;;
52668;SDS011;59898;52.786;6.892;2023-04-25T04:23:47;9.05;;;4.03;;
52668;SDS011;59898;52.786;6.892;2023-04-25T04:27:08;9.18;;;3.70;;
52668;SDS011;59898;52.786;6.892;2023-04-25T04:30:29;9.25;;;3.30;;
52668;SDS011;59898;52.786;6.892;2023-04-25T04:33:50;7.60;;;3.03;;
52668;SDS011;59898;52.786;6.892;2023-04-25T04:37:11;8.48;;;3.22;;
52668;SDS011;59898;52.786;6.892;2023-04-25T04:40:33;6.70;;;3.70;;
52668;SDS011;59898;52.786;6.892;2023-04-25T04:43:53;15.57;;;3.50;;
52668;SDS011;59898;52.786;6.892;2023-04-25T04:47:15;7.23;;;3.10;;
52668;SDS011;59898;52.786;6.892;2023-04-25T04:50:36;10.18;;;2.97;;
52668;SDS011;59898;52.786;6.892;2023-04-25T04:53:57;7.43;;;3.22;;
52668;SDS011;59898;52.786;6.892;2023-04-25T04:57:22;5.82;;;2.92;;
52668;SDS011;59898;52.786;6.892;2023-04-25T05:00:42;6.78;;;2.80;;
52668;SDS011;59898;52.786;6.892;2023-04-25T05:04:03;6.97;;;3.22;;
52668;SDS011;59898;52.786;6.892;2023-04-25T05:07:23;10.32;;;2.50;;
52668;SDS011;59898;52.786;6.892;2023-04-25T05:10:44;6.95;;;2.50;;
52668;SDS011;59898;52.786;6.892;2023-04-25T05:14:05;9.55;;;2.38;;
52668;SDS011;59898;52.786;6.892;2023-04-25T05:17:25;8.95;;;2.78;;
52668;SDS011;59898;52.786;6.892;2023-04-25T05:20:46;10.63;;;3.83;;
52668;SDS011;59898;52.786;6.892;2023-04-25T05:24:07;6.40;;;3.30;;
52668;SDS011;59898;52.786;6.892;2023-04-25T05:27:27;8.00;;;2.65;;
52668;SDS011;59898;52.786;6.892;2023-04-25T05:30:48;10.55;;;4.05;;
52668;SDS011;59898;52.786;6.892;2023-04-25T05:34:09;10.60;;;3.22;;
52668;SDS011;59898;52.786;6.892;2023-04-25T05:37:29;6.40;;;3.00;;
52668;SDS011;59898;52.786;6.892;2023-04-25T05:40:51;5.28;;;2.72;;
52668;SDS011;59898;52.786;6.892;2023-04-25T05:44:11;9.57;;;2.67;;
52668;SDS011;59898;52.786;6.892;2023-04-25T05:47:32;8.02;;;3.03;;
52668;SDS011;59898;52.786;6.892;2023-04-25T05:50:52;9.45;;;2.80;;
52668;SDS011;59898;52.786;6.892;2023-04-25T05:54:13;11.45;;;3.60;;
52668;SDS011;59898;52.786;6.892;2023-04-25T05:57:33;6.10;;;2.90;;
52668;SDS011;59898;52.786;6.892;2023-04-25T06:00:54;7.35;;;3.00;;
52668;SDS011;59898;52.786;6.892;2023-04-25T06:04:15;6.03;;;2.72;;
52668;SDS011;59898;52.786;6.892;2023-04-25T06:07:36;11.65;;;2.85;;
52668;SDS011;59898;52.786;6.892;2023-04-25T06:10:56;10.73;;;3.00;;
52668;SDS011;59898;52.786;6.892;2023-04-25T06:14:17;9.60;;;2.78;;
52668;SDS011;59898;52.786;6.892;2023-04-25T06:17:38;6.15;;;2.95;;
52668;SDS011;59898;52.786;6.892;2023-04-25T06:20:58;11.50;;;2.85;;
52668;SDS011;59898;52.786;6.892;2023-04-25T06:24:19;15.32;;;3.95;;
52668;SDS011;59898;52.786;6.892;2023-04-25T06:27:39;8.23;;;3.47;;
52668;SDS011;59898;52.786;6.892;2023-04-25T06:31:00;8.15;;;3.33;;
52668;SDS011;59898;52.786;6.892;2023-04-25T06:34:20;11.65;;;3.47;;
52668;SDS011;59898;52.786;6.892;2023-04-25T06:37:41;9.88;;;3.28;;
52668;SDS011;59898;52.786;6.892;2023-04-25T06:41:02;14.48;;;3.55;;
52668;SDS011;59898;52.786;6.892;2023-04-25T06:44:22;8.38;;;3.70;;
52668;SDS011;59898;52.786;6.892;2023-04-25T06:47:44;64.65;;;5.50;;
52668;SDS011;59898;52.786;6.892;2023-04-25T06:51:04;10.70;;;3.33;;
52668;SDS011;59898;52.786;6.892;2023-04-25T06:54:25;10.13;;;2.67;;
52668;SDS011;59898;52.786;6.892;2023-04-25T06:57:47;15.75;;;3.80;;
52668;SDS011;59898;52.786;6.892;2023-04-25T07:01:07;11.10;;;3.85;;
52668;SDS011;59898;52.786;6.892;2023-04-25T07:04:28;8.70;;;3.20;;
52668;SDS011;59898;52.786;6.892;2023-04-25T07:07:48;8.27;;;2.85;;
52668;SDS011;59898;52.786;6.892;2023-04-25T07:11:09;10.98;;;2.53;;
52668;SDS011;59898;52.786;6.892;2023-04-25T07:14:30;9.90;;;3.35;;
52668;SDS011;59898;52.786;6.892;2023-04-25T07:17:50;11.48;;;3.10;;
52668;SDS011;59898;52.786;6.892;2023-04-25T07:21:11;11.30;;;2.72;;
52668;SDS011;59898;52.786;6.892;2023-04-25T07:24:32;14.18;;;4.00;;
52668;SDS011;59898;52.786;6.892;2023-04-25T07:27:53;8.52;;;3.17;;
52668;SDS011;59898;52.786;6.892;2023-04-25T07:31:13;6.68;;;3.35;;
52668;SDS011;59898;52.786;6.892;2023-04-25T07:34:36;12.13;;;3.25;;
52668;SDS011;59898;52.786;6.892;2023-04-25T07:37:57;8.82;;;3.30;;
52668;SDS011;59898;52.786;6.892;2023-04-25T07:41:18;5.82;;;2.55;;
52668;SDS011;59898;52.786;6.892;2023-04-25T07:44:39;7.25;;;2.47;;
52668;SDS011;59898;52.786;6.892;2023-04-25T07:48:00;9.70;;;2.63;;
52668;SDS011;59898;52.786;6.892;2023-04-25T07:51:20;9.77;;;2.88;;
52668;SDS011;59898;52.786;6.892;2023-04-25T07:54:42;7.15;;;2.88;;
52668;SDS011;59898;52.786;6.892;2023-04-25T07:58:02;5.57;;;2.63;;
52668;SDS011;59898;52.786;6.892;2023-04-25T08:01:23;8.02;;;2.50;;
52668;SDS011;59898;52.786;6.892;2023-04-25T08:04:43;10.35;;;3.03;;
52668;SDS011;59898;52.786;6.892;2023-04-25T08:08:04;8.27;;;2.47;;
52668;SDS011;59898;52.786;6.892;2023-04-25T08:11:26;10.38;;;2.45;;
52668;SDS011;59898;52.786;6.892;2023-04-25T08:14:47;10.48;;;2.28;;
52668;SDS011;59898;52.786;6.892;2023-04-25T08:18:07;8.05;;;2.75;;
52668;SDS011;59898;52.786;6.892;2023-04-25T08:21:28;5.05;;;1.80;;
52668;SDS011;59898;52.786;6.892;2023-04-25T08:24:48;9.05;;;2.20;;
52668;SDS011;59898;52.786;6.892;2023-04-25T08:28:09;19.25;;;10.02;;
52668;SDS011;59898;52.786;6.892;2023-04-25T08:31:29;7.55;;;2.45;;
52668;SDS011;59898;52.786;6.892;2023-04-25T08:34:50;8.90;;;2.33;;
52668;SDS011;59898;52.786;6.892;2023-04-25T08:38:14;6.75;;;2.05;;
52668;SDS011;59898;52.786;6.892;2023-04-25T08:41:36;4.35;;;2.55;;
52668;SDS011;59898;52.786;6.892;2023-04-25T08:44:57;7.38;;;2.38;;
52668;SDS011;59898;52.786;6.892;2023-04-25T08:48:19;17.40;;;3.80;;
52668;SDS011;59898;52.786;6.892;2023-04-25T08:51:44;6.43;;;2.85;;
52668;SDS011;59898;52.786;6.892;2023-04-25T08:55:06;4.68;;;2.20;;
52668;SDS011;59898;52.786;6.892;2023-04-25T08:58:29;7.93;;;1.97;;
52668;SDS011;59898;52.786;6.892;2023-04-25T09:01:51;6.63;;;2.00;;
52668;SDS011;59898;52.786;6.892;2023-04-25T09:05:12;9.02;;;2.65;;
52668;SDS011;59898;52.786;6.892;2023-04-25T09:08:33;4.13;;;2.00;;
52668;SDS011;59898;52.786;6.892;2023-04-25T09:11:56;3.15;;;1.95;;
52668;SDS011;59898;52.786;6.892;2023-04-25T09:15:17;9.80;;;2.47;;
52668;SDS011;59898;52.786;6.892;2023-04-25T09:18:37;8.98;;;4.75;;
52668;SDS011;59898;52.786;6.892;2023-04-25T09:21:58;14.68;;;5.15;;
52668;SDS011;59898;52.786;6.892;2023-04-25T09:25:21;9.93;;;2.70;;
52668;SDS011;59898;52.786;6.892;2023-04-25T09:28:41;6.32;;;2.17;;
52668;SDS011;59898;52.786;6.892;2023-04-25T09:32:16;6.78;;;2.35;;
52668;SDS011;59898;52.786;6.892;2023-04-25T09:35:42;7.60;;;2.55;;
52668;SDS011;59898;52.786;6.892;2023-04-25T09:39:04;5.22;;;2.28;;
52668;SDS011;59898;52.786;6.892;2023-04-25T09:42:35;9.18;;;2.08;;
52668;SDS011;59898;52.786;6.892;2023-04-25T09:45:55;11.85;;;2.25;;
52668;SDS011;59898;52.786;6.892;2023-04-25T09:49:20;4.50;;;2.15;;
52668;SDS011;59898;52.786;6.892;2023-04-25T09:52:41;5.65;;;1.80;;
52668;SDS011;59898;52.786;6.892;2023-04-25T09:56:03;3.30;;;1.40;;
52668;SDS011;59898;52.786;6.892;2023-04-25T09:59:25;2.83;;;1.52;;
52668;SDS011;59898;52.786;6.892;2023-04-25T10:02:46;4.53;;;1.85;;
52668;SDS011;59898;52.786;6.892;2023-04-25T10:06:11;4.72;;;1.70;;
52668;SDS011;59898;52.786;6.892;2023-04-25T10:09:36;6.95;;;2.15;;
52668;SDS011;59898;52.786;6.892;2023-04-25T10:12:57;5.07;;;1.90;;
52668;SDS011;59898;52.786;6.892;2023-04-25T10:16:18;12.38;;;7.55;;
52668;SDS011;59898;52.786;6.892;2023-04-25T10:19:39;8.68;;;2.83;;
52668;SDS011;59898;52.786;6.892;2023-04-25T10:23:08;4.85;;;2.08;;
52668;SDS011;59898;52.786;6.892;2023-04-25T10:26:33;6.93;;;2.00;;
52668;SDS011;59898;52.786;6.892;2023-04-25T10:30:03;5.40;;;2.17;;
52668;SDS011;59898;52.786;6.892;2023-04-25T10:33:38;7.30;;;2.53;;
52668;SDS011;59898;52.786;6.892;2023-04-25T10:37:00;5.60;;;2.22;;
52668;SDS011;59898;52.786;6.892;2023-04-25T10:40:23;5.22;;;2.03;;
52668;SDS011;59898;52.786;6.892;2023-04-25T10:43:44;2.60;;;1.90;;
52668;SDS011;59898;52.786;6.892;2023-04-25T10:47:09;2.67;;;1.60;;
52668;SDS011;59898;52.786;6.892;2023-04-25T10:50:37;5.63;;;1.77;;
52668;SDS011;59898;52.786;6.892;2023-04-25T10:54:02;5.43;;;1.98;;
52668;SDS011;59898;52.786;6.892;2023-04-25T10:57:27;2.88;;;1.70;;
52668;SDS011;59898;52.786;6.892;2023-04-25T11:00:57;7.68;;;2.83;;
52668;SDS011;59898;52.786;6.892;2023-04-25T11:11:10;6.70;;;2.08;;
52668;SDS011;59898;52.786;6.892;2023-04-25T11:14:31;7.18;;;2.55;;
52668;SDS011;59898;52.786;6.892;2023-04-25T11:17:52;3.10;;;1.95;;
52668;SDS011;59898;52.786;6.892;2023-04-25T11:21:13;7.22;;;2.97;;
52668;SDS011;59898;52.786;6.892;2023-04-25T11:24:34;7.75;;;2.58;;
52668;SDS011;59898;52.786;6.892;2023-04-25T11:27:57;8.30;;;3.50;;
52668;SDS011;59898;52.786;6.892;2023-04-25T11:31:20;6.30;;;2.70;;
52668;SDS011;59898;52.786;6.892;2023-04-25T11:34:42;6.20;;;3.25;;
52668;SDS011;59898;52.786;6.892;2023-04-25T11:38:04;6.65;;;2.88;;
52668;SDS011;59898;52.786;6.892;2023-04-25T11:41:25;4.18;;;2.05;;
52668;SDS011;59898;52.786;6.892;2023-04-25T11:44:46;11.00;;;2.65;;
52668;SDS011;59898;52.786;6.892;2023-04-25T11:48:06;5.00;;;2.55;;
52668;SDS011;59898;52.786;6.892;2023-04-25T11:51:27;5.70;;;1.83;;
52668;SDS011;59898;52.786;6.892;2023-04-25T11:54:47;6.60;;;3.67;;
52668;SDS011;59898;52.786;6.892;2023-04-25T11:58:08;5.53;;;2.15;;
52668;SDS011;59898;52.786;6.892;2023-04-25T12:04:50;7.07;;;2.45;;
52668;SDS011;59898;52.786;6.892;2023-04-25T12:08:14;5.60;;;2.28;;
52668;SDS011;59898;52.786;6.892;2023-04-25T12:11:42;5.20;;;2.03;;
52668;SDS011;59898;52.786;6.892;2023-04-25T12:15:37;4.95;;;1.85;;
52668;SDS011;59898;52.786;6.892;2023-04-25T12:18:53;6.93;;;2.83;;
52668;SDS011;59898;52.786;6.892;2023-04-25T12:22:20;5.85;;;2.20;;
52668;SDS011;59898;52.786;6.892;2023-04-25T12:25:43;6.88;;;2.50;;
52668;SDS011;59898;52.786;6.892;2023-04-25T12:29:14;5.43;;;2.50;;
52668;SDS011;59898;52.786;6.892;2023-04-25T12:32:39;6.85;;;2.58;;
52668;SDS011;59898;52.786;6.892;2023-04-25T12:36:00;8.48;;;2.78;;
52668;SDS011;59898;52.786;6.892;2023-04-25T12:39:27;8.15;;;2.28;;
52668;SDS011;59898;52.786;6.892;2023-04-25T12:42:48;3.97;;;2.05;;
52668;SDS011;59898;52.786;6.892;2023-04-25T12:46:09;8.82;;;2.45;;
52668;SDS011;59898;52.786;6.892;2023-04-25T12:49:29;5.95;;;2.45;;
52668;SDS011;59898;52.786;6.892;2023-04-25T12:52:50;5.07;;;1.98;;
52668;SDS011;59898;52.786;6.892;2023-04-25T12:56:11;8.25;;;2.33;;
52668;SDS011;59898;52.786;6.892;2023-04-25T12:59:31;6.35;;;2.28;;
52668;SDS011;59898;52.786;6.892;2023-04-25T13:02:52;6.95;;;2.38;;
52668;SDS011;59898;52.786;6.892;2023-04-25T13:06:12;5.47;;;2.35;;
52668;SDS011;59898;52.786;6.892;2023-04-25T13:09:33;7.47;;;3.45;;
52668;SDS011;59898;52.786;6.892;2023-04-25T13:12:54;15.18;;;2.78;;
52668;SDS011;59898;52.786;6.892;2023-04-25T13:16:15;4.07;;;1.83;;
52668;SDS011;59898;52.786;6.892;2023-04-25T13:19:35;5.00;;;1.70;;
52668;SDS011;59898;52.786;6.892;2023-04-25T13:22:56;5.63;;;2.47;;
52668;SDS011;59898;52.786;6.892;2023-04-25T13:26:17;3.75;;;2.38;;
52668;SDS011;59898;52.786;6.892;2023-04-25T13:29:37;3.78;;;2.17;;
52668;SDS011;59898;52.786;6.892;2023-04-25T13:33:00;6.28;;;2.10;;
52668;SDS011;59898;52.786;6.892;2023-04-25T13:36:23;5.03;;;2.22;;
52668;SDS011;59898;52.786;6.892;2023-04-25T13:39:44;5.53;;;2.20;;
52668;SDS011;59898;52.786;6.892;2023-04-25T13:43:05;3.47;;;1.88;;
52668;SDS011;59898;52.786;6.892;2023-04-25T13:46:26;4.70;;;2.00;;
52668;SDS011;59898;52.786;6.892;2023-04-25T13:49:47;4.82;;;2.20;;
52668;SDS011;59898;52.786;6.892;2023-04-25T13:53:07;7.10;;;2.25;;
52668;SDS011;59898;52.786;6.892;2023-04-25T13:56:28;5.88;;;2.10;;
52668;SDS011;59898;52.786;6.892;2023-04-25T13:59:49;5.00;;;2.30;;
52668;SDS011;59898;52.786;6.892;2023-04-25T14:03:10;4.75;;;2.08;;
52668;SDS011;59898;52.786;6.892;2023-04-25T14:06:31;6.93;;;2.20;;
52668;SDS011;59898;52.786;6.892;2023-04-25T14:09:52;7.03;;;2.70;;
52668;SDS011;59898;52.786;6.892;2023-04-25T14:13:13;4.60;;;2.05;;
52668;SDS011;59898;52.786;6.892;2023-04-25T14:16:34;3.45;;;2.00;;
52668;SDS011;59898;52.786;6.892;2023-04-25T14:19:54;10.63;;;2.10;;
52668;SDS011;59898;52.786;6.892;2023-04-25T14:23:15;3.55;;;1.80;;
52668;SDS011;59898;52.786;6.892;2023-04-25T14:26:37;3.30;;;1.85;;
52668;SDS011;59898;52.786;6.892;2023-04-25T14:29:58;3.78;;;1.65;;
52668;SDS011;59898;52.786;6.892;2023-04-25T14:33:18;8.25;;;2.45;;
52668;SDS011;59898;52.786;6.892;2023-04-25T14:36:39;4.30;;;2.17;;
52668;SDS011;59898;52.786;6.892;2023-04-25T14:39:59;7.68;;;2.33;;
52668;SDS011;59898;52.786;6.892;2023-04-25T14:43:20;6.60;;;2.40;;
52668;SDS011;59898;52.786;6.892;2023-04-25T14:46:41;4.70;;;2.70;;
52668;SDS011;59898;52.786;6.892;2023-04-25T14:50:01;8.13;;;2.22;;
52668;SDS011;59898;52.786;6.892;2023-04-25T14:53:23;5.65;;;2.78;;
52668;SDS011;59898;52.786;6.892;2023-04-25T14:56:43;6.22;;;2.95;;
52668;SDS011;59898;52.786;6.892;2023-04-25T15:00:04;7.53;;;3.85;;
52668;SDS011;59898;52.786;6.892;2023-04-25T15:03:29;5.03;;;2.55;;
52668;SDS011;59898;52.786;6.892;2023-04-25T15:06:49;4.95;;;1.90;;
52668;SDS011;59898;52.786;6.892;2023-04-25T15:10:10;5.70;;;2.10;;
52668;SDS011;59898;52.786;6.892;2023-04-25T15:13:33;5.63;;;2.35;;
52668;SDS011;59898;52.786;6.892;2023-04-25T15:16:54;6.18;;;2.85;;
52668;SDS011;59898;52.786;6.892;2023-04-25T15:20:15;6.28;;;2.10;;
52668;SDS011;59898;52.786;6.892;2023-04-25T15:23:36;6.40;;;2.63;;
52668;SDS011;59898;52.786;6.892;2023-04-25T15:26:58;5.10;;;2.22;;
52668;SDS011;59898;52.786;6.892;2023-04-25T15:30:18;6.28;;;2.10;;
52668;SDS011;59898;52.786;6.892;2023-04-25T15:33:39;7.95;;;2.33;;
52668;SDS011;59898;52.786;6.892;2023-04-25T15:37:00;7.78;;;2.60;;
52668;SDS011;59898;52.786;6.892;2023-04-25T15:40:20;5.63;;;2.20;;
52668;SDS011;59898;52.786;6.892;2023-04-25T15:43:41;5.35;;;2.47;;
52668;SDS011;59898;52.786;6.892;2023-04-25T15:47:01;8.30;;;2.45;;
52668;SDS011;59898;52.786;6.892;2023-04-25T15:50:22;9.82;;;3.15;;
52668;SDS011;59898;52.786;6.892;2023-04-25T15:53:43;8.60;;;2.17;;
52668;SDS011;59898;52.786;6.892;2023-04-25T15:57:03;5.43;;;2.20;;
52668;SDS011;59898;52.786;6.892;2023-04-25T16:00:24;8.45;;;2.58;;
52668;SDS011;59898;52.786;6.892;2023-04-25T16:03:44;3.85;;;2.08;;
52668;SDS011;59898;52.786;6.892;2023-04-25T16:07:05;5.53;;;2.45;;
52668;SDS011;59898;52.786;6.892;2023-04-25T16:10:27;7.10;;;2.63;;
52668;SDS011;59898;52.786;6.892;2023-04-25T16:13:47;5.38;;;2.10;;
52668;SDS011;59898;52.786;6.892;2023-04-25T16:17:08;8.15;;;2.33;;
52668;SDS011;59898;52.786;6.892;2023-04-25T16:20:29;8.45;;;3.67;;
52668;SDS011;59898;52.786;6.892;2023-04-25T16:23:49;5.07;;;2.92;;
52668;SDS011;59898;52.786;6.892;2023-04-25T16:27:10;6.13;;;2.25;;
52668;SDS011;59898;52.786;6.892;2023-04-25T16:30:31;8.57;;;2.40;;
52668;SDS011;59898;52.786;6.892;2023-04-25T16:33:51;10.40;;;2.83;;
52668;SDS011;59898;52.786;6.892;2023-04-25T16:37:12;8.43;;;2.25;;
52668;SDS011;59898;52.786;6.892;2023-04-25T16:40:33;4.55;;;2.33;;
52668;SDS011;59898;52.786;6.892;2023-04-25T16:43:53;6.20;;;1.98;;
52668;SDS011;59898;52.786;6.892;2023-04-25T16:47:14;7.30;;;3.20;;
52668;SDS011;59898;52.786;6.892;2023-04-25T16:50:35;8.77;;;2.97;;
52668;SDS011;59898;52.786;6.892;2023-04-25T16:53:55;5.25;;;2.40;;
52668;SDS011;59898;52.786;6.892;2023-04-25T16:57:16;8.45;;;2.80;;
52668;SDS011;59898;52.786;6.892;2023-04-25T17:00:37;7.32;;;2.28;;
52668;SDS011;59898;52.786;6.892;2023-04-25T17:03:58;7.22;;;2.28;;
52668;SDS011;59898;52.786;6.892;2023-04-25T17:07:18;5.50;;;2.60;;
52668;SDS011;59898;52.786;6.892;2023-04-25T17:10:43;6.78;;;2.10;;
52668;SDS011;59898;52.786;6.892;2023-04-25T17:14:03;5.55;;;2.40;;
52668;SDS011;59898;52.786;6.892;2023-04-25T17:17:25;4.43;;;2.17;;
52668;SDS011;59898;52.786;6.892;2023-04-25T17:20:45;5.45;;;2.03;;
52668;SDS011;59898;52.786;6.892;2023-04-25T17:24:06;6.75;;;2.25;;
52668;SDS011;59898;52.786;6.892;2023-04-25T17:27:31;10.15;;;2.60;;
52668;SDS011;59898;52.786;6.892;2023-04-25T17:30:52;6.53;;;2.30;;
52668;SDS011;59898;52.786;6.892;2023-04-25T17:34:12;7.13;;;2.80;;
52668;SDS011;59898;52.786;6.892;2023-04-25T17:37:36;9.40;;;3.17;;
52668;SDS011;59898;52.786;6.892;2023-04-25T17:40:57;9.32;;;2.70;;
52668;SDS011;59898;52.786;6.892;2023-04-25T17:44:18;7.07;;;2.28;;
52668;SDS011;59898;52.786;6.892;2023-04-25T17:47:38;6.53;;;2.30;;
52668;SDS011;59898;52.786;6.892;2023-04-25T17:51:00;7.32;;;3.05;;
52668;SDS011;59898;52.786;6.892;2023-04-25T17:54:20;11.60;;;2.53;;
52668;SDS011;59898;52.786;6.892;2023-04-25T17:57:41;3.00;;;1.65;;
52668;SDS011;59898;52.786;6.892;2023-04-25T18:01:02;9.63;;;2.70;;
52668;SDS011;59898;52.786;6.892;2023-04-25T18:04:24;4.60;;;2.13;;
52668;SDS011;59898;52.786;6.892;2023-04-25T18:07:45;7.90;;;2.15;;
52668;SDS011;59898;52.786;6.892;2023-04-25T18:11:06;9.68;;;2.15;;
52668;SDS011;59898;52.786;6.892;2023-04-25T18:14:26;7.18;;;2.38;;
52668;SDS011;59898;52.786;6.892;2023-04-25T18:17:47;7.43;;;2.28;;
52668;SDS011;59898;52.786;6.892;2023-04-25T18:21:08;9.45;;;2.92;;
52668;SDS011;59898;52.786;6.892;2023-04-25T18:24:28;7.03;;;2.00;;
52668;SDS011;59898;52.786;6.892;2023-04-25T18:27:49;9.02;;;2.47;;
52668;SDS011;59898;52.786;6.892;2023-04-25T18:31:10;7.60;;;2.10;;
52668;SDS011;59898;52.786;6.892;2023-04-25T18:34:31;9.43;;;2.47;;
52668;SDS011;59898;52.786;6.892;2023-04-25T18:37:52;10.98;;;2.28;;
52668;SDS011;59898;52.786;6.892;2023-04-25T18:41:13;10.02;;;2.78;;
52668;SDS011;59898;52.786;6.892;2023-04-25T18:44:34;8.18;;;3.35;;
52668;SDS011;59898;52.786;6.892;2023-04-25T18:48:01;8.73;;;2.25;;
52668;SDS011;59898;52.786;6.892;2023-04-25T18:51:25;6.38;;;2.80;;
52668;SDS011;59898;52.786;6.892;2023-04-25T18:54:50;11.55;;;6.05;;
52668;SDS011;59898;52.786;6.892;2023-04-25T18:58:11;10.15;;;3.17;;
52668;SDS011;59898;52.786;6.892;2023-04-25T19:01:32;10.23;;;2.70;;
52668;SDS011;59898;52.786;6.892;2023-04-25T19:04:53;11.45;;;2.85;;
52668;SDS011;59898;52.786;6.892;2023-04-25T19:08:14;12.43;;;2.92;;
52668;SDS011;59898;52.786;6.892;2023-04-25T19:11:34;5.38;;;2.38;;
52668;SDS011;59898;52.786;6.892;2023-04-25T19:14:55;11.13;;;3.28;;
52668;SDS011;59898;52.786;6.892;2023-04-25T19:18:15;7.38;;;3.75;;
52668;SDS011;59898;52.786;6.892;2023-04-25T19:21:36;12.05;;;3.95;;
52668;SDS011;59898;52.786;6.892;2023-04-25T19:24:57;6.55;;;2.83;;
52668;SDS011;59898;52.786;6.892;2023-04-25T19:28:18;13.32;;;4.00;;
52668;SDS011;59898;52.786;6.892;2023-04-25T19:31:39;8.52;;;3.03;;
52668;SDS011;59898;52.786;6.892;2023-04-25T19:35:01;15.35;;;3.00;;
52668;SDS011;59898;52.786;6.892;2023-04-25T19:38:25;14.23;;;3.08;;
52668;SDS011;59898;52.786;6.892;2023-04-25T19:41:46;13.35;;;2.95;;
52668;SDS011;59898;52.786;6.892;2023-04-25T19:45:06;7.72;;;2.40;;
52668;SDS011;59898;52.786;6.892;2023-04-25T19:48:28;7.15;;;2.33;;
52668;SDS011;59898;52.786;6.892;2023-04-25T19:51:48;9.18;;;2.38;;
52668;SDS011;59898;52.786;6.892;2023-04-25T19:55:09;6.72;;;3.20;;
52668;SDS011;59898;52.786;6.892;2023-04-25T19:58:30;13.48;;;3.42;;
52668;SDS011;59898;52.786;6.892;2023-04-25T20:01:51;5.32;;;2.40;;
52668;SDS011;59898;52.786;6.892;2023-04-25T20:05:14;11.63;;;2.67;;
52668;SDS011;59898;52.786;6.892;2023-04-25T20:08:35;6.57;;;2.58;;
52668;SDS011;59898;52.786;6.892;2023-04-25T20:11:56;13.68;;;2.65;;
52668;SDS011;59898;52.786;6.892;2023-04-25T20:15:16;5.50;;;2.38;;
52668;SDS011;59898;52.786;6.892;2023-04-25T20:18:38;18.98;;;10.85;;